createdAt,value
2023-01-15T00:00:01.871Z,5.7
2023-01-15T00:01:01.538Z,5.6
2023-01-15T00:02:02.027Z,5.6
2023-01-15T00:03:01.624Z,5.5
2023-01-15T00:04:01.276Z,5.4
2023-01-15T00:05:01.820Z,5.4
2023-01-15T00:06:01.429Z,5.4
2023-01-15T00:07:02.014Z,5.5
2023-01-15T00:08:01.606Z,5.4
2023-01-15T00:09:01.189Z,5.5
2023-01-15T00:10:01.788Z,5.5
2023-01-15T00:11:01.390Z,5.5
2023-01-15T00:12:01.964Z,5.5
2023-01-15T00:13:01.571Z,5.5
2023-01-15T00:14:01.140Z,5.6
2023-01-15T00:15:01.753Z,5.5
2023-01-15T00:16:01.401Z,5.5
2023-01-15T00:17:01.926Z,5.4
2023-01-15T00:18:01.533Z,5.4
2023-01-15T00:19:02.094Z,5.4
2023-01-15T00:20:01.749Z,5.4
2023-01-15T00:21:01.330Z,5.4
2023-01-15T00:22:01.917Z,5.4
2023-01-15T00:23:01.522Z,5.4
2023-01-15T00:24:02.094Z,5.4
2023-01-15T00:25:01.774Z,5.3
2023-01-15T00:26:01.332Z,5.3
2023-01-15T00:27:01.919Z,5.3
2023-01-15T00:28:01.879Z,5.3
2023-01-15T00:29:02.096Z,5.3
2023-01-15T00:30:01.744Z,5.3
2023-01-15T00:31:01.343Z,5.3
2023-01-15T00:32:01.894Z,5.3
2023-01-15T00:33:01.584Z,5.3
2023-01-15T00:34:01.150Z,5.4
2023-01-15T00:35:01.738Z,5.4
2023-01-15T00:36:01.337Z,5.4
2023-01-15T00:37:01.933Z,5.4
2023-01-15T00:38:01.555Z,5.4
2023-01-15T00:39:01.120Z,5.4
2023-01-15T00:40:01.727Z,5.4
2023-01-15T00:41:01.321Z,5.4
2023-01-15T00:42:01.909Z,5.4
2023-01-15T00:43:01.526Z,5.5
2023-01-15T00:44:01.176Z,5.6
2023-01-15T00:45:01.199Z,5.5
2023-01-15T00:46:02.029Z,5.6
2023-01-15T00:47:01.622Z,5.6
2023-01-15T00:48:01.233Z,5.6
2023-01-15T00:49:01.786Z,5.7
2023-01-15T00:50:01.391Z,5.7
2023-01-15T00:51:01.945Z,5.7
2023-01-15T00:52:01.544Z,5.7
2023-01-15T00:53:01.138Z,5.7
2023-01-15T00:54:01.712Z,5.7
2023-01-15T00:55:01.339Z,5.7
2023-01-15T00:56:01.929Z,5.8
2023-01-15T00:57:01.575Z,5.7
2023-01-15T00:58:01.176Z,5.8
2023-01-15T00:59:01.744Z,5.8
2023-01-15T01:00:01.355Z,5.8
2023-01-15T01:01:02.068Z,5.8
2023-01-15T01:02:01.654Z,5.7
2023-01-15T01:03:01.165Z,5.7
2023-01-15T01:04:01.741Z,5.7
2023-01-15T01:05:01.392Z,5.8
2023-01-15T01:06:01.929Z,5.8
2023-01-15T01:07:01.533Z,5.8
2023-01-15T01:08:02.098Z,5.8
2023-01-15T01:09:01.691Z,5.8
2023-01-15T01:10:01.302Z,5.8
2023-01-15T01:11:01.868Z,5.8
2023-01-15T01:12:01.459Z,5.8
2023-01-15T01:13:02.063Z,5.8
2023-01-15T01:14:01.652Z,5.9
2023-01-15T01:15:01.246Z,5.9
2023-01-15T01:16:01.925Z,5.9
2023-01-15T01:17:01.512Z,5.9
2023-01-15T01:18:02.078Z,5.9
2023-01-15T01:19:01.667Z,6
2023-01-15T01:20:01.252Z,6
2023-01-15T01:21:01.841Z,6
2023-01-15T01:22:01.429Z,6
2023-01-15T01:23:02.030Z,6
2023-01-15T01:24:01.641Z,6
2023-01-15T01:25:01.198Z,6
2023-01-15T01:26:01.782Z,6
2023-01-15T01:27:01.379Z,6
2023-01-15T01:28:02.011Z,6.1
2023-01-15T01:29:01.631Z,6
2023-01-15T01:30:01.191Z,6
2023-01-15T01:31:01.800Z,6.1
2023-01-15T01:32:01.402Z,6
2023-01-15T01:33:01.971Z,6.1
2023-01-15T01:34:01.595Z,6.2
2023-01-15T01:35:01.136Z,6.2
2023-01-15T01:36:01.715Z,6.2
2023-01-15T01:37:01.305Z,6.2
2023-01-15T01:38:01.878Z,6.2
2023-01-15T01:39:01.538Z,6.2
2023-01-15T01:40:02.062Z,6.2
2023-01-15T01:41:01.649Z,6.2
2023-01-15T01:42:01.236Z,6.2
2023-01-15T01:43:01.826Z,6.2
2023-01-15T01:44:01.487Z,6.2
2023-01-15T01:45:02.071Z,6.3
2023-01-15T01:46:01.701Z,6.3
2023-01-15T01:47:01.225Z,6.4
2023-01-15T01:48:01.793Z,6.3
2023-01-15T01:49:01.408Z,6.4
2023-01-15T01:50:01.972Z,6.4
2023-01-15T01:51:01.566Z,6.4
2023-01-15T01:52:01.145Z,6.4
2023-01-15T01:53:01.719Z,6.4
2023-01-15T01:54:01.334Z,6.4
2023-01-15T01:55:01.919Z,6.4
2023-01-15T01:56:01.522Z,6.5
2023-01-15T01:57:02.089Z,6.5
2023-01-15T01:58:01.684Z,6.5
2023-01-15T01:59:01.273Z,6.5
2023-01-15T02:00:01.894Z,6.5
2023-01-15T02:01:01.536Z,6.5
2023-01-15T02:02:02.139Z,6.5
2023-01-15T02:03:01.741Z,6.5
2023-01-15T02:04:01.285Z,6.6
2023-01-15T02:05:01.887Z,6.5
2023-01-15T02:06:01.486Z,6.5
2023-01-15T02:07:02.059Z,6.5
2023-01-15T02:08:01.648Z,6.5
2023-01-15T02:09:01.246Z,6.5
2023-01-15T02:10:01.870Z,6.5
2023-01-15T02:11:01.494Z,6.6
2023-01-15T02:12:02.060Z,6.5
2023-01-15T02:13:01.648Z,6.6
2023-01-15T02:14:01.236Z,6.6
2023-01-15T02:15:01.836Z,6.6
2023-01-15T02:16:01.447Z,6.5
2023-01-15T02:17:02.002Z,6.6
2023-01-15T02:18:01.592Z,6.7
2023-01-15T02:19:01.183Z,6.6
2023-01-15T02:20:01.773Z,6.5
2023-01-15T02:21:01.423Z,6.5
2023-01-15T02:22:01.981Z,6.6
2023-01-15T02:23:01.575Z,6.6
2023-01-15T02:24:03.099Z,6.6
2023-01-15T02:25:01.684Z,6.6
2023-01-15T02:26:01.296Z,6.6
2023-01-15T02:27:01.845Z,6.7
2023-01-15T02:28:01.434Z,6.7
2023-01-15T02:29:02.024Z,6.6
2023-01-15T02:30:01.609Z,6.6
2023-01-15T02:31:01.209Z,6.6
2023-01-15T02:32:01.771Z,6.6
2023-01-15T02:33:01.390Z,6.6
2023-01-15T02:34:01.939Z,6.6
2023-01-15T02:35:01.540Z,6.6
2023-01-15T02:36:01.127Z,6.6
2023-01-15T02:37:01.696Z,6.6
2023-01-15T02:38:01.318Z,6.6
2023-01-15T02:39:01.883Z,6.6
2023-01-15T02:40:01.523Z,6.6
2023-01-15T02:41:02.043Z,6.6
2023-01-15T02:42:01.655Z,6.6
2023-01-15T02:43:01.265Z,6.6
2023-01-15T02:44:01.819Z,6.6
2023-01-15T02:45:01.558Z,6.5
2023-01-15T02:46:02.018Z,6.5
2023-01-15T02:47:01.664Z,6.6
2023-01-15T02:48:01.213Z,6.6
2023-01-15T02:49:01.779Z,6.5
2023-01-15T02:50:01.380Z,6.5
2023-01-15T02:51:01.961Z,6.5
2023-01-15T02:52:01.575Z,6.5
2023-01-15T02:53:01.127Z,6.5
2023-01-15T02:54:01.699Z,6.6
2023-01-15T02:55:01.288Z,6.6
2023-01-15T02:56:01.885Z,6.5
2023-01-15T02:57:01.513Z,6.5
2023-01-15T02:58:02.054Z,6.6
2023-01-15T02:59:01.642Z,6.6
2023-01-15T03:00:01.226Z,6.6
2023-01-15T03:01:01.916Z,6.6
2023-01-15T03:02:01.517Z,6.6
2023-01-15T03:03:02.042Z,6.6
2023-01-15T03:04:01.630Z,6.6
2023-01-15T03:05:01.224Z,6.5
2023-01-15T03:06:01.823Z,6.6
2023-01-15T03:07:01.432Z,6.5
2023-01-15T03:08:02.007Z,6.6
2023-01-15T03:09:01.596Z,6.5
2023-01-15T03:10:01.185Z,6.4
2023-01-15T03:11:01.776Z,6.5
2023-01-15T03:12:01.362Z,6.5
2023-01-15T03:13:01.950Z,6.6
2023-01-15T03:14:01.564Z,6.5
2023-01-15T03:15:01.143Z,6.4
2023-01-15T03:16:01.722Z,6.4
2023-01-15T03:17:01.318Z,6.4
2023-01-15T03:18:01.899Z,6.5
2023-01-15T03:19:01.488Z,6.5
2023-01-15T03:20:02.093Z,6.5
2023-01-15T03:21:01.687Z,6.5
2023-01-15T03:22:01.278Z,6.5
2023-01-15T03:23:01.886Z,6.5
2023-01-15T03:24:01.502Z,6.5
2023-01-15T03:25:02.076Z,6.5
2023-01-15T03:26:01.680Z,6.5
2023-01-15T03:27:01.283Z,6.5
2023-01-15T03:28:01.878Z,6.5
2023-01-15T03:29:01.473Z,6.5
2023-01-15T03:30:02.046Z,6.5
2023-01-15T03:31:01.712Z,6.4
2023-01-15T03:32:01.294Z,6.5
2023-01-15T03:33:01.871Z,6.5
2023-01-15T03:34:01.461Z,6.4
2023-01-15T03:35:02.050Z,6.4
2023-01-15T03:36:01.657Z,6.4
2023-01-15T03:37:01.260Z,6.4
2023-01-15T03:38:01.834Z,6.5
2023-01-15T03:39:01.422Z,6.5
2023-01-15T03:40:01.995Z,6.5
2023-01-15T03:41:01.600Z,6.5
2023-01-15T03:42:01.171Z,6.4
2023-01-15T03:43:01.740Z,6.4
2023-01-15T03:44:01.326Z,6.4
2023-01-15T03:45:01.901Z,6.4
2023-01-15T03:46:01.685Z,6.5
2023-01-15T03:47:02.074Z,6.4
2023-01-15T03:48:01.663Z,6.4
2023-01-15T03:49:01.260Z,6.4
2023-01-15T03:50:01.913Z,6.4
2023-01-15T03:51:01.519Z,6.3
2023-01-15T03:52:02.049Z,6.3
2023-01-15T03:53:01.644Z,6.3
2023-01-15T03:54:01.285Z,6.4
2023-01-15T03:55:01.807Z,6.4
2023-01-15T03:56:01.415Z,6.3
2023-01-15T03:57:01.978Z,6.3
2023-01-15T03:58:01.565Z,6.3
2023-01-15T03:59:01.169Z,6.3
2023-01-15T04:00:01.762Z,6.3
2023-01-15T04:01:01.440Z,6.3
2023-01-15T04:02:02.081Z,6.3
2023-01-15T04:03:01.596Z,6.3
2023-01-15T04:04:01.245Z,6.3
2023-01-15T04:05:01.752Z,6.3
2023-01-15T04:06:01.348Z,6.3
2023-01-15T04:07:01.928Z,6.3
2023-01-15T04:08:01.555Z,6.2
2023-01-15T04:09:02.121Z,6.3
2023-01-15T04:10:01.728Z,6.3
2023-01-15T04:11:01.316Z,6.3
2023-01-15T04:12:01.897Z,6.3
2023-01-15T04:13:01.555Z,6.3
2023-01-15T04:14:02.094Z,6.3
2023-01-15T04:15:01.697Z,6.3
2023-01-15T04:16:01.323Z,6.3
2023-01-15T04:17:01.850Z,6.3
2023-01-15T04:18:01.446Z,6.3
2023-01-15T04:19:02.079Z,6.3
2023-01-15T04:20:01.670Z,6.3
2023-01-15T04:21:01.251Z,6.3
2023-01-15T04:22:01.835Z,6.3
2023-01-15T04:23:01.427Z,6.2
2023-01-15T04:24:02.021Z,6.3
2023-01-15T04:25:01.684Z,6.3
2023-01-15T04:26:01.218Z,6.3
2023-01-15T04:27:01.766Z,6.3
2023-01-15T04:28:01.356Z,6.3
2023-01-15T04:29:01.937Z,6.2
2023-01-15T04:30:01.564Z,6.2
2023-01-15T04:31:01.158Z,6.2
2023-01-15T04:32:01.692Z,6.2
2023-01-15T04:33:01.287Z,6.2
2023-01-15T04:34:01.857Z,6.2
2023-01-15T04:35:01.479Z,6.2
2023-01-15T04:36:02.023Z,6.2
2023-01-15T04:37:01.634Z,6.2
2023-01-15T04:38:01.199Z,6.2
2023-01-15T04:39:01.789Z,6.2
2023-01-15T04:40:01.377Z,6.2
2023-01-15T04:41:01.973Z,6.2
2023-01-15T04:42:01.581Z,6.2
2023-01-15T04:43:01.141Z,6.2
2023-01-15T04:44:01.711Z,6.3
2023-01-15T04:45:01.298Z,6.2
2023-01-15T04:46:01.895Z,6.2
2023-01-15T04:47:01.633Z,6.2
2023-01-15T04:48:02.074Z,6.2
2023-01-15T04:49:01.656Z,6.3
2023-01-15T04:50:01.281Z,6.2
2023-01-15T04:51:01.816Z,6.2
2023-01-15T04:52:01.428Z,6.2
2023-01-15T04:53:01.992Z,6.2
2023-01-15T04:54:01.585Z,6.1
2023-01-15T04:55:01.171Z,6.2
2023-01-15T04:56:01.742Z,6.2
2023-01-15T04:57:01.351Z,6.2
2023-01-15T04:58:01.915Z,6.2
2023-01-15T04:59:01.542Z,6.3
2023-01-15T05:00:02.108Z,6.2
2023-01-15T05:01:01.827Z,6.3
2023-01-15T05:02:05.238Z,6.3
2023-01-15T05:03:01.868Z,6.3
2023-01-15T05:04:01.484Z,6.3
2023-01-15T05:05:02.052Z,6.2
2023-01-15T05:06:01.645Z,6.2
2023-01-15T05:07:01.234Z,6.2
2023-01-15T05:08:01.807Z,6.2
2023-01-15T05:09:01.393Z,6.2
2023-01-15T05:10:01.997Z,6.2
2023-01-15T05:11:01.583Z,6.1
2023-01-15T05:12:01.171Z,6.2
2023-01-15T05:13:01.747Z,6.2
2023-01-15T05:14:01.345Z,6.2
2023-01-15T05:15:01.963Z,6.3
2023-01-15T05:16:01.598Z,6.3
2023-01-15T05:17:01.159Z,6.3
2023-01-15T05:18:01.711Z,6.3
2023-01-15T05:19:01.302Z,6.3
2023-01-15T05:20:01.869Z,6.3
2023-01-15T05:21:01.461Z,6.3
2023-01-15T05:22:02.046Z,6.3
2023-01-15T05:23:01.642Z,6.3
2023-01-15T05:24:01.229Z,6.3
2023-01-15T05:25:01.817Z,6.3
2023-01-15T05:26:01.403Z,6.2
2023-01-15T05:27:02.006Z,6.3
2023-01-15T05:28:01.602Z,6.2
2023-01-15T05:29:01.187Z,6.2
2023-01-15T05:30:01.793Z,6.2
2023-01-15T05:31:01.424Z,6.3
2023-01-15T05:32:01.968Z,6.3
2023-01-15T05:33:01.557Z,6.3
2023-01-15T05:34:01.132Z,6.2
2023-01-15T05:35:01.730Z,6.2
2023-01-15T05:36:01.325Z,6.3
2023-01-15T05:37:01.921Z,6.3
2023-01-15T05:38:01.535Z,6.3
2023-01-15T05:39:01.118Z,6.2
2023-01-15T05:40:01.711Z,6.3
2023-01-15T05:41:01.302Z,6.2
2023-01-15T05:42:01.883Z,6.3
2023-01-15T05:43:01.476Z,6.3
2023-01-15T05:44:02.053Z,6.3
2023-01-15T05:45:01.703Z,6.3
2023-01-15T05:46:01.327Z,6.3
2023-01-15T05:47:01.977Z,6.3
2023-01-15T05:48:01.549Z,6.3
2023-01-15T05:49:02.097Z,6.4
2023-01-15T05:50:01.726Z,6.4
2023-01-15T05:51:01.313Z,6.4
2023-01-15T05:52:01.902Z,6.3
2023-01-15T05:53:01.541Z,6.4
2023-01-15T05:54:02.070Z,6.4
2023-01-15T05:55:01.674Z,6.4
2023-01-15T05:56:01.271Z,6.4
2023-01-15T05:57:01.844Z,6.3
2023-01-15T05:58:01.431Z,6.3
2023-01-15T05:59:02.017Z,6.4
2023-01-15T06:00:01.650Z,6.4
2023-01-15T06:01:01.261Z,6.4
2023-01-15T06:02:01.778Z,6.4
2023-01-15T06:03:01.417Z,6.4
2023-01-15T06:04:02.074Z,6.4
2023-01-15T06:05:01.647Z,6.4
2023-01-15T06:06:01.209Z,6.4
2023-01-15T06:07:01.815Z,6.4
2023-01-15T06:08:01.570Z,6.4
2023-01-15T06:09:01.979Z,6.4
2023-01-15T06:10:01.594Z,6.4
2023-01-15T06:11:01.169Z,6.4
2023-01-15T06:12:01.745Z,6.4
2023-01-15T06:13:01.335Z,6.4
2023-01-15T06:14:01.908Z,6.5
2023-01-15T06:15:01.548Z,6.5
2023-01-15T06:16:02.151Z,6.5
2023-01-15T06:17:01.788Z,6.4
2023-01-15T06:18:01.310Z,6.4
2023-01-15T06:19:01.899Z,6.4
2023-01-15T06:20:01.489Z,6.5
2023-01-15T06:21:02.074Z,6.6
2023-01-15T06:22:01.693Z,6.6
2023-01-15T06:23:01.279Z,6.6
2023-01-15T06:24:01.863Z,6.6
2023-01-15T06:25:01.481Z,6.6
2023-01-15T06:26:02.048Z,6.6
2023-01-15T06:27:01.659Z,6.6
2023-01-15T06:28:01.244Z,6.6
2023-01-15T06:29:01.859Z,6.5
2023-01-15T06:30:01.451Z,6.5
2023-01-15T06:31:02.044Z,6.5
2023-01-15T06:32:01.666Z,6.6
2023-01-15T06:33:01.258Z,6.5
2023-01-15T06:34:01.844Z,6.6
2023-01-15T06:35:01.428Z,6.6
2023-01-15T06:36:02.011Z,6.6
2023-01-15T06:37:01.603Z,6.6
2023-01-15T06:38:01.169Z,6.6
2023-01-15T06:39:03.620Z,6.6
2023-01-15T06:40:01.309Z,6.6
2023-01-15T06:41:01.910Z,6.5
2023-01-15T06:42:01.544Z,6.5
2023-01-15T06:43:02.090Z,6.5
2023-01-15T06:44:01.701Z,6.6
2023-01-15T06:45:01.292Z,6.6
2023-01-15T06:46:01.880Z,6.6
2023-01-15T06:47:01.475Z,6.6
2023-01-15T06:48:01.155Z,6.5
2023-01-15T06:49:01.647Z,6.5
2023-01-15T06:50:01.259Z,6.5
2023-01-15T06:51:01.804Z,6.5
2023-01-15T06:52:01.400Z,6.5
2023-01-15T06:53:01.971Z,6.6
2023-01-15T06:54:01.590Z,6.6
2023-01-15T06:55:01.160Z,6.6
2023-01-15T06:56:01.730Z,6.6
2023-01-15T06:57:01.323Z,6.6
2023-01-15T06:58:01.914Z,6.6
2023-01-15T06:59:01.544Z,6.6
2023-01-15T07:00:02.151Z,6.6
2023-01-15T07:01:01.836Z,6.6
2023-01-15T07:02:01.340Z,6.6
2023-01-15T07:03:01.934Z,6.5
2023-01-15T07:04:01.583Z,6.6
2023-01-15T07:05:01.131Z,6.6
2023-01-15T07:06:01.683Z,6.5
2023-01-15T07:07:01.277Z,6.5
2023-01-15T07:08:01.858Z,6.6
2023-01-15T07:09:01.448Z,6.6
2023-01-15T07:10:02.054Z,6.5
2023-01-15T07:11:01.647Z,6.6
2023-01-15T07:12:01.239Z,6.6
2023-01-15T07:13:01.810Z,6.6
2023-01-15T07:14:01.406Z,6.6
2023-01-15T07:15:01.992Z,6.6
2023-01-15T07:16:01.693Z,6.6
2023-01-15T07:17:01.173Z,6.6
2023-01-15T07:18:01.735Z,6.6
2023-01-15T07:19:01.324Z,6.6
2023-01-15T07:20:01.943Z,6.6
2023-01-15T07:21:01.561Z,6.6
2023-01-15T07:22:01.137Z,6.6
2023-01-15T07:23:01.697Z,6.6
2023-01-15T07:24:01.295Z,6.6
2023-01-15T07:25:01.898Z,6.5
2023-01-15T07:26:01.536Z,6.6
2023-01-15T07:27:02.069Z,6.5
2023-01-15T07:28:01.661Z,6.5
2023-01-15T07:29:01.262Z,6.5
2023-01-15T07:30:01.819Z,6.5
2023-01-15T07:31:01.502Z,6.5
2023-01-15T07:32:02.007Z,6.5
2023-01-15T07:33:01.602Z,6.5
2023-01-15T07:34:01.187Z,6.5
2023-01-15T07:35:01.769Z,6.6
2023-01-15T07:36:01.355Z,6.5
2023-01-15T07:37:01.972Z,6.6
2023-01-15T07:38:01.616Z,6.5
2023-01-15T07:39:01.178Z,6.5
2023-01-15T07:40:01.777Z,6.5
2023-01-15T07:41:01.375Z,6.5
2023-01-15T07:42:01.973Z,6.6
2023-01-15T07:43:01.582Z,6.6
2023-01-15T07:44:01.164Z,6.6
2023-01-15T07:45:01.734Z,6.6
2023-01-15T07:46:01.393Z,6.5
2023-01-15T07:47:01.923Z,6.6
2023-01-15T07:48:01.612Z,6.5
2023-01-15T07:49:02.084Z,6.5
2023-01-15T07:50:01.692Z,6.5
2023-01-15T07:51:01.305Z,6.6
2023-01-15T07:52:01.874Z,6.6
2023-01-15T07:53:01.463Z,6.6
2023-01-15T07:54:02.032Z,6.6
2023-01-15T07:55:01.665Z,6.6
2023-01-15T07:56:01.259Z,6.6
2023-01-15T07:57:01.830Z,6.6
2023-01-15T07:58:01.423Z,6.6
2023-01-15T07:59:01.995Z,6.5
2023-01-15T08:00:01.601Z,6.6
2023-01-15T08:01:01.254Z,6.6
2023-01-15T08:02:01.873Z,6.5
2023-01-15T08:03:01.399Z,6.5
2023-01-15T08:04:02.022Z,6.5
2023-01-15T08:05:01.637Z,6.5
2023-01-15T08:06:01.199Z,6.4
2023-01-15T08:07:01.769Z,6.5
2023-01-15T08:08:01.380Z,6.6
2023-01-15T08:09:01.932Z,6.5
2023-01-15T08:10:01.552Z,6.5
2023-01-15T08:11:01.111Z,6.5
2023-01-15T08:12:01.694Z,6.5
2023-01-15T08:13:01.300Z,6.5
2023-01-15T08:14:01.866Z,6.5
2023-01-15T08:15:01.526Z,6.5
2023-01-15T08:16:02.072Z,6.5
2023-01-15T08:17:01.677Z,6.6
2023-01-15T08:18:01.245Z,6.5
2023-01-15T08:19:01.828Z,6.5
2023-01-15T08:20:01.441Z,6.5
2023-01-15T08:21:02.005Z,6.6
2023-01-15T08:22:01.594Z,6.5
2023-01-15T08:23:01.171Z,6.5
2023-01-15T08:24:01.748Z,6.5
2023-01-15T08:25:01.484Z,6.5
2023-01-15T08:26:01.920Z,6.5
2023-01-15T08:27:01.510Z,6.6
2023-01-15T08:28:02.125Z,6.6
2023-01-15T08:29:01.712Z,6.5
2023-01-15T08:30:01.317Z,6.5
2023-01-15T08:31:01.967Z,6.6
2023-01-15T08:32:03.302Z,6.6
2023-01-15T08:33:01.954Z,6.6
2023-01-15T08:34:01.549Z,6.6
2023-01-15T08:35:01.166Z,6.6
2023-01-15T08:36:01.720Z,6.6
2023-01-15T08:37:01.311Z,6.6
2023-01-15T08:38:01.889Z,6.6
2023-01-15T08:39:01.483Z,6.5
2023-01-15T08:40:02.077Z,6.5
2023-01-15T08:41:01.683Z,6.5
2023-01-15T08:42:01.269Z,6.6
2023-01-15T08:43:01.848Z,6.6
2023-01-15T08:44:01.452Z,6.6
2023-01-15T08:45:02.034Z,6.6
2023-01-15T08:46:01.727Z,6.6
2023-01-15T08:47:01.211Z,6.5
2023-01-15T08:48:01.780Z,6.6
2023-01-15T08:49:01.488Z,6.6
2023-01-15T08:50:01.958Z,6.6
2023-01-15T08:51:01.582Z,6.6
2023-01-15T08:52:01.157Z,6.6
2023-01-15T08:53:01.743Z,6.7
2023-01-15T08:54:01.335Z,6.6
2023-01-15T08:55:01.952Z,6.6
2023-01-15T08:56:01.609Z,6.7
2023-01-15T08:57:01.155Z,6.6
2023-01-15T08:58:01.728Z,6.6
2023-01-15T08:59:01.318Z,6.6
2023-01-15T09:00:01.905Z,6.6
2023-01-15T09:01:01.641Z,6.5
2023-01-15T09:02:02.188Z,6.6
2023-01-15T09:03:01.826Z,6.5
2023-01-15T09:04:01.309Z,6.5
2023-01-15T09:05:01.966Z,6.5
2023-01-15T09:06:01.542Z,6.5
2023-01-15T09:07:01.201Z,6.5
2023-01-15T09:08:01.712Z,6.5
2023-01-15T09:09:01.297Z,6.5
2023-01-15T09:10:01.954Z,6.5
2023-01-15T09:11:01.549Z,6.5
2023-01-15T09:12:01.123Z,6.4
2023-01-15T09:13:01.679Z,6.4
2023-01-15T09:14:01.280Z,6.5
2023-01-15T09:15:03.335Z,6.5
2023-01-15T09:16:02.103Z,6.4
2023-01-15T09:17:01.709Z,6.3
2023-01-15T09:18:01.299Z,6.3
2023-01-15T09:19:01.892Z,6.4
2023-01-15T09:20:01.489Z,6.3
2023-01-15T09:21:02.063Z,6.3
2023-01-15T09:22:01.785Z,6.3
2023-01-15T09:23:01.306Z,6.3
2023-01-15T09:24:01.881Z,6.3
2023-01-15T09:25:01.472Z,6.3
2023-01-15T09:26:02.044Z,6.4
2023-01-15T09:27:01.652Z,6.4
2023-01-15T09:28:01.244Z,6.4
2023-01-15T09:29:01.808Z,6.3
2023-01-15T09:30:01.389Z,6.4
2023-01-15T09:31:02.046Z,6.3
2023-01-15T09:32:01.647Z,6.3
2023-01-15T09:33:01.238Z,6.3
2023-01-15T09:34:01.787Z,6.4
2023-01-15T09:35:01.377Z,6.4
2023-01-15T09:36:01.960Z,6.3
2023-01-15T09:37:01.563Z,6.3
2023-01-15T09:38:01.151Z,6.4
2023-01-15T09:39:01.703Z,6.5
2023-01-15T09:40:01.303Z,6.5
2023-01-15T09:41:01.870Z,6.4
2023-01-15T09:42:01.456Z,6.4
2023-01-15T09:43:02.076Z,6.6
2023-01-15T09:44:01.675Z,6.6
2023-01-15T09:45:01.275Z,6.6
2023-01-15T09:46:01.898Z,6.5
2023-01-15T09:47:01.494Z,6.6
2023-01-15T09:48:02.088Z,6.6
2023-01-15T09:49:01.678Z,6.6
2023-01-15T09:50:01.358Z,6.7
2023-01-15T09:51:01.870Z,6.6
2023-01-15T09:52:01.462Z,6.6
2023-01-15T09:53:02.076Z,6.6
2023-01-15T09:54:01.672Z,6.6
2023-01-15T09:55:01.264Z,6.5
2023-01-15T09:56:01.875Z,6.4
2023-01-15T09:57:01.480Z,6.5
2023-01-15T09:58:02.100Z,6.5
2023-01-15T09:59:01.704Z,6.5
2023-01-15T10:00:01.274Z,6.5
2023-01-15T10:01:01.914Z,6.5
2023-01-15T10:02:01.543Z,6.5
2023-01-15T10:03:02.107Z,6.6
2023-01-15T10:04:01.776Z,6.7
2023-01-15T10:05:02.677Z,6.8
2023-01-15T10:06:01.845Z,6.6
2023-01-15T10:07:01.470Z,6.7
2023-01-15T10:08:02.037Z,6.7
2023-01-15T10:09:01.628Z,6.7
2023-01-15T10:10:01.211Z,6.7
2023-01-15T10:11:01.782Z,6.8
2023-01-15T10:12:01.390Z,6.7
2023-01-15T10:13:01.956Z,6.7
2023-01-15T10:14:01.555Z,6.6
2023-01-15T10:15:01.113Z,6.7
2023-01-15T10:16:01.744Z,6.6
2023-01-15T10:17:01.377Z,6.8
2023-01-15T10:18:01.932Z,6.8
2023-01-15T10:19:01.545Z,6.8
2023-01-15T10:20:02.104Z,6.8
2023-01-15T10:21:01.691Z,6.7
2023-01-15T10:22:01.292Z,6.7
2023-01-15T10:23:01.882Z,6.7
2023-01-15T10:24:01.474Z,6.8
2023-01-15T10:25:02.053Z,6.8
2023-01-15T10:26:01.636Z,6.8
2023-01-15T10:27:01.222Z,6.8
2023-01-15T10:28:01.825Z,6.8
2023-01-15T10:29:01.416Z,6.8
2023-01-15T10:30:01.988Z,6.9
2023-01-15T10:31:01.611Z,6.8
2023-01-15T10:32:01.157Z,6.8
2023-01-15T10:33:03.014Z,6.8
2023-01-15T10:34:01.817Z,6.8
2023-01-15T10:35:01.991Z,6.7
2023-01-15T10:36:01.575Z,6.8
2023-01-15T10:37:01.165Z,6.8
2023-01-15T10:38:01.745Z,6.8
2023-01-15T10:39:01.350Z,6.9
2023-01-15T10:40:01.939Z,6.9
2023-01-15T10:41:01.532Z,7
2023-01-15T10:42:01.105Z,7
2023-01-15T10:43:01.701Z,7
2023-01-15T10:44:01.326Z,7.2
2023-01-15T10:45:01.861Z,7.2
2023-01-15T10:46:01.527Z,7.3
2023-01-15T10:47:02.033Z,7.3
2023-01-15T10:48:01.624Z,7.3
2023-01-15T10:49:01.233Z,7.3
2023-01-15T10:50:01.889Z,7.3
2023-01-15T10:51:01.473Z,7.3
2023-01-15T10:52:02.031Z,7.3
2023-01-15T10:53:01.619Z,7.3
2023-01-15T10:54:01.211Z,7.3
2023-01-15T10:55:01.783Z,7.4
2023-01-15T10:56:01.391Z,7.4
2023-01-15T10:57:02.051Z,7.5
2023-01-15T10:58:09.700Z,7.4
2023-01-15T10:59:01.160Z,7.4
2023-01-15T11:00:01.761Z,7.4
2023-01-15T11:01:01.449Z,7.4
2023-01-15T11:02:02.051Z,7.3
2023-01-15T11:03:01.649Z,7.3
2023-01-15T11:04:01.194Z,7.3
2023-01-15T11:05:01.793Z,7.4
2023-01-15T11:06:01.408Z,7.4
2023-01-15T11:07:01.975Z,7.5
2023-01-15T11:09:10.623Z,7.4
2023-01-15T11:10:01.664Z,7.4
2023-01-15T11:11:01.255Z,7.4
2023-01-15T11:12:01.871Z,7.4
2023-01-15T11:13:01.497Z,7.4
2023-01-15T11:14:02.063Z,7.3
2023-01-15T11:15:01.675Z,7.4
2023-01-15T11:16:01.335Z,7.4
2023-01-15T11:17:01.870Z,7.4
2023-01-15T11:18:01.483Z,7.3
2023-01-15T11:19:02.058Z,7.3
2023-01-15T11:20:01.670Z,7.4
2023-01-15T11:21:01.257Z,7.4
2023-01-15T11:22:01.842Z,7.3
2023-01-15T11:23:01.430Z,7.4
2023-01-15T11:24:02.029Z,7.4
2023-01-15T11:25:01.625Z,7.3
2023-01-15T11:26:01.192Z,7.3
2023-01-15T11:27:01.777Z,7.3
2023-01-15T11:28:01.365Z,7.3
2023-01-15T11:29:01.961Z,7.3
2023-01-15T11:30:01.550Z,7.3
2023-01-15T11:31:01.153Z,7.4
2023-01-15T11:32:01.715Z,7.5
2023-01-15T11:33:01.312Z,7.4
2023-01-15T11:34:01.922Z,7.3
2023-01-15T11:35:01.616Z,7.3
2023-01-15T11:36:02.100Z,7.3
2023-01-15T11:37:01.690Z,7.3
2023-01-15T11:38:01.281Z,7.4
2023-01-15T11:39:01.875Z,7.4
2023-01-15T11:40:01.466Z,7.3
2023-01-15T11:41:02.051Z,7.4
2023-01-15T11:42:01.658Z,7.4
2023-01-15T11:43:01.245Z,7.3
2023-01-15T11:44:01.855Z,7.3
2023-01-15T11:45:01.445Z,7.3
2023-01-15T11:46:02.100Z,7.3
2023-01-15T11:47:01.678Z,7.3
2023-01-15T11:48:01.265Z,7.3
2023-01-15T11:49:01.867Z,7.2
2023-01-15T11:50:01.460Z,7.3
2023-01-15T11:51:01.152Z,7.4
2023-01-15T11:52:01.619Z,7.3
2023-01-15T11:53:01.208Z,7.3
2023-01-15T11:54:01.821Z,7.4
2023-01-15T11:55:01.427Z,7.5
2023-01-15T11:56:02.017Z,7.5
2023-01-15T11:57:01.608Z,7.5
2023-01-15T11:58:01.185Z,7.4
2023-01-15T11:59:01.770Z,7.4
2023-01-15T12:00:01.369Z,7.3
2023-01-15T12:01:01.982Z,7.4
2023-01-15T12:02:01.827Z,7.3
2023-01-15T12:03:01.168Z,7.3
2023-01-15T12:04:01.923Z,7.3
2023-01-15T12:05:01.402Z,7.3
2023-01-15T12:06:02.000Z,7.3
2023-01-15T12:07:01.591Z,7.3
2023-01-15T12:08:01.179Z,7.3
2023-01-15T12:09:01.777Z,7.3
2023-01-15T12:10:01.403Z,7.3
2023-01-15T12:11:10.988Z,7.3
2023-01-15T12:12:01.509Z,7.3
2023-01-15T12:13:01.122Z,7.3
2023-01-15T12:14:01.709Z,7.3
2023-01-15T12:15:01.316Z,7.4
2023-01-15T12:16:01.911Z,7.3
2023-01-15T12:17:01.572Z,7.2
2023-01-15T12:18:02.104Z,7.2
2023-01-15T12:19:01.702Z,7.2
2023-01-15T12:20:01.290Z,7.2
2023-01-15T12:21:01.871Z,7.2
2023-01-15T12:22:01.478Z,7.2
2023-01-15T12:23:02.027Z,7.1
2023-01-15T12:24:01.627Z,7.2
2023-01-15T12:25:01.202Z,7.1
2023-01-15T12:26:01.789Z,7.2
2023-01-15T12:27:01.405Z,7.2
2023-01-15T12:28:01.987Z,7.3
2023-01-15T12:29:01.576Z,7.3
2023-01-15T12:30:01.179Z,7.3
2023-01-15T12:31:01.793Z,7.3
2023-01-15T12:32:01.437Z,7.2
2023-01-15T12:33:01.984Z,7.2
2023-01-15T12:34:01.584Z,7.2
2023-01-15T12:35:01.151Z,7.2
2023-01-15T12:36:01.736Z,7.2
2023-01-15T12:37:01.338Z,7.1
2023-01-15T12:38:01.928Z,7.2
2023-01-15T12:39:01.519Z,7.1
2023-01-15T12:40:02.085Z,7.1
2023-01-15T12:41:01.693Z,7.1
2023-01-15T12:42:01.285Z,7
2023-01-15T12:43:01.869Z,7
2023-01-15T12:44:01.461Z,6.9
2023-01-15T12:45:02.049Z,7
2023-01-15T12:46:01.675Z,7
2023-01-15T12:47:01.258Z,7.1
2023-01-15T12:48:01.847Z,7.1
2023-01-15T12:49:01.471Z,7.2
2023-01-15T12:50:02.059Z,7.3
2023-01-15T12:51:01.647Z,7.4
2023-01-15T12:52:01.340Z,7.3
2023-01-15T12:53:01.820Z,7.3
2023-01-15T12:54:01.432Z,7.2
2023-01-15T12:55:02.003Z,7.3
2023-01-15T12:56:01.595Z,7.3
2023-01-15T12:57:02.725Z,7.2
2023-01-15T12:58:01.647Z,7.2
2023-01-15T12:59:01.255Z,7.2
2023-01-15T13:00:01.848Z,7.2
2023-01-15T13:01:01.544Z,7.2
2023-01-15T13:02:02.115Z,7.2
2023-01-15T13:03:01.687Z,7.3
2023-01-15T13:04:01.257Z,7.3
2023-01-15T13:05:01.881Z,7.3
2023-01-15T13:06:01.478Z,7.3
2023-01-15T13:07:02.045Z,7.3
2023-01-15T13:08:01.633Z,7.2
2023-01-15T13:09:01.226Z,7.3
2023-01-15T13:10:01.847Z,7.2
2023-01-15T13:11:01.456Z,7.3
2023-01-15T13:12:02.040Z,7.2
2023-01-15T13:13:01.632Z,7.2
2023-01-15T13:14:01.222Z,7.1
2023-01-15T13:15:01.826Z,7.2
2023-01-15T13:16:01.525Z,7.2
2023-01-15T13:17:01.996Z,7.2
2023-01-15T13:18:01.609Z,7.3
2023-01-15T13:19:01.181Z,7.2
2023-01-15T13:20:01.785Z,7.2
2023-01-15T13:21:01.375Z,7.1
2023-01-15T13:22:01.974Z,7.1
2023-01-15T13:23:01.579Z,7.1
2023-01-15T13:24:01.153Z,7
2023-01-15T13:25:01.764Z,7
2023-01-15T13:26:01.355Z,7
2023-01-15T13:27:01.942Z,7
2023-01-15T13:28:01.565Z,7
2023-01-15T13:29:01.118Z,7
2023-01-15T13:30:01.736Z,7
2023-01-15T13:31:01.338Z,6.9
2023-01-15T13:32:01.930Z,7
2023-01-15T13:33:01.558Z,7
2023-01-15T13:34:01.109Z,7
2023-01-15T13:35:01.695Z,7
2023-01-15T13:36:01.306Z,7
2023-01-15T13:37:01.877Z,7
2023-01-15T13:38:01.491Z,6.9
2023-01-15T13:39:02.048Z,6.9
2023-01-15T13:40:01.633Z,7
2023-01-15T13:41:01.233Z,7
2023-01-15T13:42:01.792Z,7.1
2023-01-15T13:43:01.407Z,7.1
2023-01-15T13:44:01.971Z,7.1
2023-01-15T13:45:01.576Z,7
2023-01-15T13:46:01.160Z,7
2023-01-15T13:47:01.720Z,7.1
2023-01-15T13:48:01.323Z,7
2023-01-15T13:49:01.883Z,7